createdAt,value
2022-12-11T00:00:26.397Z,46.84
2022-12-11T00:02:53.385Z,45.43
2022-12-11T00:05:20.533Z,52.23
2022-12-11T00:07:47.598Z,52.04
2022-12-11T00:10:14.497Z,51.55
2022-12-11T00:12:41.570Z,49.64
2022-12-11T00:15:09.226Z,51.01
2022-12-11T00:17:36.562Z,49.12
2022-12-11T00:20:04.992Z,50.27
2022-12-11T00:22:31.879Z,50.16
2022-12-11T00:24:58.742Z,50.52
2022-12-11T00:27:25.704Z,51.43
2022-12-11T00:29:52.741Z,52.89
2022-12-11T00:32:19.801Z,53.97
2022-12-11T00:34:46.777Z,54.12
2022-12-11T00:37:14.119Z,58.14
2022-12-11T00:39:41.218Z,53.56
2022-12-11T00:42:08.701Z,53.67
2022-12-11T00:44:36.088Z,53.19
2022-12-11T00:47:03.937Z,54.22
2022-12-11T00:49:31.275Z,51.32
2022-12-11T00:51:58.328Z,54.61
2022-12-11T00:54:25.214Z,53.10
2022-12-11T00:56:52.234Z,52.90
2022-12-11T00:59:19.290Z,51.36
2022-12-11T01:01:46.326Z,51.61
2022-12-11T01:04:13.528Z,50.32
2022-12-11T01:06:40.625Z,50.40
2022-12-11T01:09:26.233Z,54.28
2022-12-11T01:11:53.561Z,51.97
2022-12-11T01:14:20.417Z,51.21
2022-12-11T01:16:47.530Z,53.64
2022-12-11T01:19:14.832Z,54.25
2022-12-11T01:21:41.678Z,56.92
2022-12-11T01:24:08.528Z,59.09
2022-12-11T01:26:35.961Z,57.40
2022-12-11T01:29:03.453Z,65.11
2022-12-11T01:31:30.549Z,61.91
2022-12-11T01:33:57.652Z,65.02
2022-12-11T01:36:24.709Z,60.83
2022-12-11T01:38:53.581Z,62.18
2022-12-11T01:41:21.766Z,62.82
2022-12-11T01:44:08.749Z,66.99
2022-12-11T01:46:36.582Z,62.75
2022-12-11T01:49:08.973Z,66.23
2022-12-11T01:51:49.422Z,66.96
2022-12-11T01:54:20.275Z,68.81
2022-12-11T01:56:49.937Z,69.32
2022-12-11T01:59:23.484Z,74.15
2022-12-11T02:01:59.140Z,69.03
2022-12-11T02:04:29.339Z,71.87
2022-12-11T02:06:56.289Z,71.86
2022-12-11T02:09:33.288Z,73.78
2022-12-11T02:12:18.218Z,75.30
2022-12-11T02:14:57.337Z,69.70
2022-12-11T02:17:33.667Z,69.87
2022-12-11T02:20:22.843Z,70.73
2022-12-11T02:22:52.477Z,69.61
2022-12-11T02:25:35.855Z,66.92
2022-12-11T02:28:14.892Z,69.67
2022-12-11T02:30:47.313Z,70.46
2022-12-11T02:33:18.347Z,70.46
2022-12-11T02:35:48.340Z,65.57
2022-12-11T02:38:27.073Z,65.69
2022-12-11T02:40:58.035Z,68.14
2022-12-11T02:43:25.563Z,67.47
2022-12-11T02:45:54.322Z,66.77
2022-12-11T02:48:24.338Z,65.68
2022-12-11T02:50:56.077Z,66.36
2022-12-11T02:53:28.670Z,63.92
2022-12-11T02:56:10.864Z,61.69
2022-12-11T02:58:47.618Z,59.61
2022-12-11T03:01:14.670Z,59.70
2022-12-11T03:03:42.317Z,60.76
2022-12-11T03:06:18.267Z,59.87
2022-12-11T03:08:45.135Z,59.91
2022-12-11T03:11:13.353Z,59.34
2022-12-11T03:13:42.518Z,58.65
2022-12-11T03:16:41.709Z,55.77
2022-12-11T03:19:35.438Z,55.79
2022-12-11T03:22:36.908Z,55.66
2022-12-11T03:25:10.465Z,57.72
2022-12-11T03:27:50.549Z,59.04
2022-12-11T03:30:22.110Z,56.60
2022-12-11T03:32:58.199Z,56.91
2022-12-11T03:35:28.272Z,53.88
2022-12-11T03:38:01.979Z,54.45
2022-12-11T03:40:35.506Z,51.56
2022-12-11T03:43:05.144Z,52.46
2022-12-11T03:45:34.926Z,53.09
2022-12-11T03:48:03.261Z,54.36
2022-12-11T03:50:34.260Z,52.67
2022-12-11T03:53:04.707Z,52.10
2022-12-11T03:55:34.317Z,51.97
2022-12-11T03:58:01.358Z,49.90
2022-12-11T04:00:29.546Z,52.20
2022-12-11T04:03:15.912Z,52.21
2022-12-11T04:05:46.469Z,49.93
2022-12-11T04:08:14.389Z,51.36
2022-12-11T04:10:42.069Z,51.15
2022-12-11T04:13:10.669Z,49.97
2022-12-11T04:15:39.488Z,49.92
2022-12-11T04:18:26.650Z,49.83
2022-12-11T04:21:13.572Z,49.34
2022-12-11T04:23:59.351Z,47.55
2022-12-11T04:26:26.889Z,48.05
2022-12-11T04:28:54.397Z,47.73
2022-12-11T04:31:22.522Z,48.66
2022-12-11T04:33:49.515Z,49.01
2022-12-11T04:36:16.922Z,49.80
2022-12-11T04:38:43.756Z,49.50
2022-12-11T04:41:14.719Z,46.71
2022-12-11T04:43:44.908Z,47.89
2022-12-11T04:46:20.522Z,47.21
2022-12-11T04:48:53.838Z,47.10
2022-12-11T04:51:24.063Z,46.88
2022-12-11T04:53:50.900Z,46.05
2022-12-11T04:56:17.796Z,45.91
2022-12-11T04:58:46.483Z,45.31
2022-12-11T05:01:16.456Z,44.91
2022-12-11T05:03:43.727Z,44.71
2022-12-11T05:06:12.081Z,44.10
2022-12-11T05:08:41.625Z,43.84
2022-12-11T05:11:12.041Z,41.74
2022-12-11T05:13:40.114Z,43.00
2022-12-11T05:16:09.591Z,44.81
2022-12-11T05:18:36.796Z,47.18
2022-12-11T05:21:07.194Z,43.90
2022-12-11T05:23:34.583Z,42.79
2022-12-11T05:26:05.389Z,40.06
2022-12-11T05:28:35.596Z,41.72
2022-12-11T05:31:09.263Z,43.21
2022-12-11T05:33:36.291Z,43.90
2022-12-11T05:36:03.977Z,42.15
2022-12-11T05:38:30.964Z,42.14
2022-12-11T05:41:06.552Z,41.92
2022-12-11T05:43:35.931Z,42.54
2022-12-11T05:46:08.185Z,40.96
2022-12-11T05:48:35.312Z,41.44
2022-12-11T05:51:02.931Z,41.46
2022-12-11T05:53:30.127Z,41.51
2022-12-11T05:56:06.104Z,42.14
2022-12-11T05:58:34.423Z,42.60
2022-12-11T06:01:02.860Z,43.04
2022-12-11T06:03:29.860Z,41.83
2022-12-11T06:05:56.844Z,43.04
2022-12-11T06:08:23.727Z,42.05
2022-12-11T06:10:50.876Z,43.02
2022-12-11T06:13:18.280Z,43.70
2022-12-11T06:15:45.316Z,41.25
2022-12-11T06:18:12.166Z,42.62
2022-12-11T06:20:39.020Z,42.68
2022-12-11T06:23:06.043Z,42.94
2022-12-11T06:25:33.473Z,42.86
2022-12-11T06:28:01.002Z,41.37
2022-12-11T06:30:38.652Z,43.16
2022-12-11T06:33:06.495Z,45.23
2022-12-11T06:35:40.057Z,44.05
2022-12-11T06:38:10.406Z,46.29
2022-12-11T06:40:38.089Z,45.43
2022-12-11T06:43:04.950Z,42.85
2022-12-11T06:45:31.974Z,43.65
2022-12-11T06:47:58.819Z,43.69
2022-12-11T06:50:26.299Z,45.08
2022-12-11T06:52:53.170Z,43.67
2022-12-11T06:55:19.999Z,43.23
2022-12-11T06:57:47.016Z,45.00
2022-12-11T07:00:14.465Z,45.95
2022-12-11T07:02:41.527Z,43.70
2022-12-11T07:05:08.796Z,44.12
2022-12-11T07:07:35.950Z,41.34
2022-12-11T07:10:08.037Z,43.25
2022-12-11T07:12:36.702Z,42.70
2022-12-11T07:15:05.108Z,43.48
2022-12-11T07:17:32.265Z,41.64
2022-12-11T07:19:59.105Z,41.82
2022-12-11T07:22:26.293Z,43.66
2022-12-11T07:24:53.103Z,41.08
2022-12-11T07:27:19.928Z,42.16
2022-12-11T07:29:46.965Z,43.69
2022-12-11T07:32:14.463Z,42.39
2022-12-11T07:34:41.376Z,39.66
2022-12-11T07:37:08.459Z,38.12
2022-12-11T07:39:35.278Z,39.55
2022-12-11T07:42:02.143Z,39.90
2022-12-11T07:44:29.324Z,36.97
2022-12-11T07:46:56.472Z,32.92
2022-12-11T07:49:23.493Z,30.44
2022-12-11T07:51:50.515Z,30.38
2022-12-11T07:54:17.617Z,29.98
2022-12-11T07:56:51.188Z,30.15
2022-12-11T07:59:20.955Z,26.39
2022-12-11T08:01:48.163Z,25.93
2022-12-11T08:04:15.739Z,26.13
2022-12-11T08:06:43.156Z,26.51
2022-12-11T08:09:20.734Z,26.50
2022-12-11T08:11:52.070Z,25.86
2022-12-11T08:14:19.698Z,25.85
2022-12-11T08:16:46.950Z,32.88
2022-12-11T08:19:14.988Z,26.47
2022-12-11T08:21:41.964Z,28.16
2022-12-11T08:24:20.109Z,25.99
2022-12-11T08:26:48.315Z,25.84
2022-12-11T08:29:15.317Z,25.29
2022-12-11T08:31:42.648Z,26.09
2022-12-11T08:34:13.668Z,26.01
2022-12-11T08:36:41.183Z,26.33
2022-12-11T08:39:08.532Z,26.11
2022-12-11T08:41:36.029Z,27.25
2022-12-11T08:44:02.942Z,26.45
2022-12-11T08:46:32.247Z,25.84
2022-12-11T08:48:59.439Z,27.58
2022-12-11T08:51:28.808Z,27.38
2022-12-11T08:53:58.677Z,26.86
2022-12-11T08:56:27.281Z,25.60
2022-12-11T08:58:54.526Z,26.41
2022-12-11T09:01:24.620Z,26.52
2022-12-11T09:03:55.167Z,26.39
2022-12-11T09:06:25.314Z,26.75
2022-12-11T09:08:54.232Z,25.78
2022-12-11T09:11:24.536Z,24.26
2022-12-11T09:13:52.424Z,25.75
2022-12-11T09:16:22.444Z,24.73
2022-12-11T09:18:51.585Z,24.22
2022-12-11T09:21:22.362Z,24.63
2022-12-11T09:23:53.410Z,24.45
2022-12-11T09:26:20.372Z,24.93
2022-12-11T09:28:48.323Z,24.77
2022-12-11T09:31:23.456Z,24.18
2022-12-11T09:33:52.036Z,24.82
2022-12-11T09:36:19.063Z,24.92
2022-12-11T09:38:46.346Z,23.95
2022-12-11T09:41:22.428Z,26.65
2022-12-11T09:44:12.284Z,29.13
2022-12-11T09:46:41.222Z,41.90
2022-12-11T09:49:28.608Z,33.25
2022-12-11T09:52:05.794Z,33.63
2022-12-11T09:54:34.252Z,30.96
2022-12-11T09:57:37.443Z,30.83
2022-12-11T10:00:24.366Z,28.99
2022-12-11T10:03:02.496Z,32.75
2022-12-11T10:05:48.373Z,29.40
2022-12-11T10:08:34.327Z,26.01
2022-12-11T10:11:10.405Z,26.05
2022-12-11T10:14:15.061Z,25.21
2022-12-11T10:16:45.179Z,25.80
2022-12-11T10:19:22.793Z,23.82
2022-12-11T10:21:52.536Z,26.50
2022-12-11T10:24:50.127Z,31.82
2022-12-11T10:27:16.553Z,37.31
2022-12-11T10:29:43.623Z,81.74
2022-12-11T10:32:24.560Z,30.97
2022-12-11T10:35:02.723Z,26.44
2022-12-11T10:37:29.797Z,35.53
2022-12-11T10:39:56.696Z,32.10
2022-12-11T10:42:24.077Z,32.57
2022-12-11T10:44:58.848Z,42.04
2022-12-11T10:47:26.124Z,36.51
2022-12-11T10:49:59.068Z,28.44
2022-12-11T10:52:31.743Z,30.96
2022-12-11T10:55:03.269Z,27.31
2022-12-11T10:57:36.994Z,27.79
2022-12-11T11:00:08.972Z,27.45
2022-12-11T11:02:41.648Z,26.11
2022-12-11T11:05:26.803Z,27.78
2022-12-11T11:08:23.562Z,23.62
2022-12-11T11:11:01.459Z,33.99
2022-12-11T11:13:32.642Z,30.06
2022-12-11T11:16:04.547Z,26.02
2022-12-11T11:18:32.248Z,40.23
2022-12-11T11:21:00.765Z,38.71
2022-12-11T11:23:29.584Z,30.82
2022-12-11T11:26:09.386Z,30.51
2022-12-11T11:28:40.334Z,28.76
2022-12-11T11:31:13.701Z,27.53
2022-12-11T11:33:58.074Z,31.41
2022-12-11T11:36:28.273Z,30.62
2022-12-11T11:39:19.797Z,32.18
2022-12-11T11:41:57.292Z,31.63
2022-12-11T11:44:36.905Z,30.40
2022-12-11T11:47:12.627Z,37.03
2022-12-11T11:50:15.749Z,41.80
2022-12-11T11:53:02.312Z,39.51
2022-12-11T11:56:01.878Z,35.70
2022-12-11T11:58:59.937Z,40.93
2022-12-11T12:01:27.554Z,32.37
2022-12-11T12:03:56.303Z,31.93
2022-12-11T12:06:59.794Z,36.95
2022-12-11T12:09:51.576Z,27.63
2022-12-11T12:12:57.540Z,28.29
2022-12-11T12:15:36.378Z,27.04
2022-12-11T12:18:21.554Z,28.95
2022-12-11T12:21:00.035Z,31.01
2022-12-11T12:23:49.587Z,25.46
2022-12-11T12:26:39.641Z,22.71
2022-12-11T12:29:58.177Z,24.09
2022-12-11T12:32:25.627Z,23.60
2022-12-11T12:35:14.082Z,27.15
2022-12-11T12:38:03.440Z,23.75
2022-12-11T12:40:41.112Z,25.22
2022-12-11T12:43:34.157Z,23.96
2022-12-11T12:46:19.721Z,23.71
2022-12-11T12:48:46.640Z,23.09
2022-12-11T12:51:16.056Z,23.72
2022-12-11T12:53:53.179Z,23.25
2022-12-11T12:56:22.559Z,23.55
2022-12-11T12:58:49.633Z,32.02
2022-12-11T13:01:24.035Z,30.25
2022-12-11T13:03:55.716Z,24.41
2022-12-11T13:06:40.534Z,22.11
2022-12-11T13:09:13.699Z,22.32
2022-12-11T13:11:40.975Z,22.94
2022-12-11T13:14:13.498Z,24.04
2022-12-11T13:16:43.703Z,23.05
2022-12-11T13:19:22.527Z,24.86
2022-12-11T13:22:17.530Z,31.23
2022-12-11T13:24:50.217Z,23.52
2022-12-11T13:27:26.161Z,24.36
2022-12-11T13:30:25.400Z,24.20
2022-12-11T13:33:06.413Z,29.41
2022-12-11T13:35:35.309Z,24.09
2022-12-11T13:38:19.067Z,26.00
2022-12-11T13:40:53.452Z,27.61
2022-12-11T13:43:30.976Z,24.98
2022-12-11T13:46:03.137Z,23.33
2022-12-11T13:48:41.113Z,21.49
2022-12-11T13:51:08.134Z,29.32
2022-12-11T13:53:35.006Z,24.38
2022-12-11T13:56:07.597Z,22.49
2022-12-11T13:58:38.486Z,24.56
2022-12-11T14:01:15.611Z,24.49
2022-12-11T14:03:58.372Z,24.86
2022-12-11T14:06:28.396Z,23.48
2022-12-11T14:09:00.253Z,22.50
2022-12-11T14:11:34.950Z,23.50
2022-12-11T14:14:06.383Z,30.26
2022-12-11T14:16:34.293Z,29.12
2022-12-11T14:19:08.346Z,25.62
2022-12-11T14:21:36.423Z,28.15
2022-12-11T14:24:06.444Z,26.81
2022-12-11T14:26:38.599Z,26.97
2022-12-11T14:29:06.903Z,27.18
2022-12-11T14:31:42.811Z,29.82
2022-12-11T14:34:20.483Z,25.13
2022-12-11T14:36:49.370Z,24.20
2022-12-11T14:39:25.591Z,24.67
2022-12-11T14:42:20.154Z,24.57
2022-12-11T14:45:16.685Z,25.17
2022-12-11T14:47:44.769Z,24.71
2022-12-11T14:50:27.406Z,25.60
2022-12-11T14:53:01.932Z,27.78
2022-12-11T14:55:34.820Z,32.13
2022-12-11T14:58:07.530Z,33.02
2022-12-11T15:00:36.973Z,31.22
2022-12-11T15:03:20.197Z,33.10
2022-12-11T15:05:54.890Z,29.05
2022-12-11T15:08:31.813Z,24.76
2022-12-11T15:11:13.149Z,23.92
2022-12-11T15:14:04.673Z,25.20
2022-12-11T15:16:37.442Z,26.18
2022-12-11T15:19:05.249Z,25.75
2022-12-11T15:21:35.836Z,21.75
2022-12-11T15:24:05.962Z,22.42
2022-12-11T15:26:45.549Z,23.89
2022-12-11T15:29:30.406Z,22.37
2022-12-11T15:32:09.653Z,23.81
2022-12-11T15:34:47.903Z,23.79
2022-12-11T15:37:19.708Z,21.69
2022-12-11T15:39:46.603Z,22.19
2022-12-11T15:42:20.871Z,24.65
2022-12-11T15:44:47.995Z,22.57
2022-12-11T15:47:19.637Z,21.32
2022-12-11T15:49:46.891Z,20.95
2022-12-11T15:52:13.918Z,25.39
2022-12-11T15:54:41.038Z,29.35
2022-12-11T15:57:16.487Z,24.12
2022-12-11T15:59:47.454Z,24.59
2022-12-11T16:02:15.250Z,23.26
2022-12-11T16:04:42.276Z,42.71
2022-12-11T16:07:18.874Z,43.98
2022-12-11T16:09:47.003Z,24.03
2022-12-11T16:12:14.285Z,21.32
2022-12-11T16:14:42.155Z,24.74
2022-12-11T16:17:10.911Z,31.86
2022-12-11T16:19:38.982Z,23.98
2022-12-11T16:22:08.517Z,26.51
2022-12-11T16:24:35.953Z,28.40
2022-12-11T16:27:03.810Z,42.78
2022-12-11T16:29:41.287Z,31.39
2022-12-11T16:32:08.659Z,28.38
2022-12-11T16:34:37.488Z,27.41
2022-12-11T16:37:08.355Z,34.54
2022-12-11T16:39:37.486Z,33.08
2022-12-11T16:42:05.966Z,24.48
2022-12-11T16:44:33.358Z,22.25
2022-12-11T16:47:00.514Z,23.82
2022-12-11T16:49:27.617Z,26.28
2022-12-11T16:51:54.678Z,26.20
2022-12-11T16:54:21.771Z,25.68
2022-12-11T16:56:48.682Z,24.28
2022-12-11T16:59:15.610Z,21.74
2022-12-11T17:01:42.697Z,23.62
2022-12-11T17:04:10.206Z,25.30
2022-12-11T17:06:37.119Z,26.42
2022-12-11T17:09:04.004Z,27.87
2022-12-11T17:11:31.108Z,27.54
2022-12-11T17:13:59.736Z,26.30
2022-12-11T17:16:33.839Z,28.74
2022-12-11T17:19:02.899Z,29.25
2022-12-11T17:21:30.157Z,24.78
2022-12-11T17:23:57.232Z,24.95
2022-12-11T17:26:25.370Z,25.02
2022-12-11T17:28:52.453Z,31.27
2022-12-11T17:31:19.955Z,33.39
2022-12-11T17:33:48.036Z,29.73
2022-12-11T17:36:17.317Z,26.16
2022-12-11T17:38:45.284Z,24.46
2022-12-11T17:41:20.353Z,24.56
2022-12-11T17:43:52.867Z,24.97
2022-12-11T17:46:21.205Z,27.34
2022-12-11T17:48:48.870Z,27.94
2022-12-11T17:51:23.648Z,26.32
2022-12-11T17:53:51.602Z,26.99
2022-12-11T17:56:18.641Z,26.69
2022-12-11T17:58:45.768Z,29.99
2022-12-11T18:01:13.236Z,34.61
2022-12-11T18:03:41.317Z,29.96
2022-12-11T18:06:14.684Z,27.83
2022-12-11T18:08:42.774Z,29.17
2022-12-11T18:11:16.703Z,37.43
2022-12-11T18:13:45.448Z,56.55
2022-12-11T18:16:17.472Z,48.97
2022-12-11T18:18:46.281Z,35.97
2022-12-11T18:21:25.556Z,35.22
2022-12-11T18:23:53.117Z,31.97
2022-12-11T18:26:20.860Z,29.67
2022-12-11T18:28:49.350Z,30.45
2022-12-11T18:31:17.855Z,28.86
2022-12-11T18:33:46.118Z,33.84
2022-12-11T18:36:15.625Z,30.71
2022-12-11T18:38:43.132Z,35.11
2022-12-11T18:41:13.072Z,32.48
2022-12-11T18:43:40.689Z,26.46
2022-12-11T18:46:10.138Z,28.10
2022-12-11T18:48:37.333Z,27.92
2022-12-11T18:51:11.008Z,33.82
2022-12-11T18:53:41.452Z,31.75
2022-12-11T18:56:11.846Z,27.54
2022-12-11T18:58:39.438Z,27.46
2022-12-11T19:01:13.951Z,26.81
2022-12-11T19:03:41.254Z,24.90
2022-12-11T19:06:18.124Z,25.41
2022-12-11T19:08:45.437Z,24.37
2022-12-11T19:11:18.491Z,24.42
2022-12-11T19:13:45.995Z,43.32
2022-12-11T19:16:18.449Z,31.27
2022-12-11T19:18:46.258Z,24.30
2022-12-11T19:21:15.375Z,24.37
2022-12-11T19:23:43.661Z,23.46
2022-12-11T19:26:13.544Z,23.42
2022-12-11T19:28:40.688Z,23.45
2022-12-11T19:31:13.774Z,26.06
2022-12-11T19:33:42.129Z,25.35
2022-12-11T19:36:12.241Z,27.08
2022-12-11T19:38:41.521Z,26.56
2022-12-11T19:41:21.674Z,28.58
2022-12-11T19:43:50.785Z,32.59
2022-12-11T19:46:19.149Z,33.57
2022-12-11T19:48:49.359Z,35.22
2022-12-11T19:51:22.992Z,44.73
2022-12-11T19:53:50.765Z,49.34
2022-12-11T19:56:19.851Z,32.45
2022-12-11T19:58:48.098Z,28.48
2022-12-11T20:01:28.842Z,30.06
2022-12-11T20:03:59.979Z,29.89
2022-12-11T20:06:28.584Z,30.56
2022-12-11T20:08:55.837Z,29.33
2022-12-11T20:11:23.054Z,26.26
2022-12-11T20:13:51.233Z,25.60
2022-12-11T20:16:28.888Z,25.13
2022-12-11T20:19:06.751Z,25.14
2022-12-11T20:21:34.477Z,24.98
2022-12-11T20:24:01.604Z,23.96
2022-12-11T20:26:30.908Z,23.82
2022-12-11T20:28:58.062Z,24.76
2022-12-11T20:31:26.264Z,24.83
2022-12-11T20:33:56.205Z,26.46
2022-12-11T20:36:25.270Z,25.92
2022-12-11T20:38:52.915Z,26.18
2022-12-11T20:41:22.820Z,27.04
2022-12-11T20:43:50.840Z,25.80
2022-12-11T20:46:18.314Z,24.40
2022-12-11T20:48:46.541Z,22.82
2022-12-11T20:51:19.690Z,27.09
2022-12-11T20:53:57.372Z,38.06
2022-12-11T20:56:27.799Z,39.97
2022-12-11T20:58:55.891Z,35.51
2022-12-11T21:01:25.548Z,31.63
2022-12-11T21:03:53.448Z,32.91
2022-12-11T21:06:46.817Z,32.09
2022-12-11T21:09:19.167Z,34.81
2022-12-11T21:11:46.163Z,32.36
2022-12-11T21:14:13.410Z,28.33
2022-12-11T21:16:40.494Z,24.96
2022-12-11T21:19:12.447Z,23.69
2022-12-11T21:21:45.194Z,23.75
2022-12-11T21:24:15.546Z,23.97
2022-12-11T21:26:42.958Z,24.16
2022-12-11T21:29:10.015Z,25.55
2022-12-11T21:31:36.792Z,30.26
2022-12-11T21:34:03.922Z,27.59
2022-12-11T21:36:31.189Z,25.29
2022-12-11T21:38:59.176Z,23.59
2022-12-11T21:41:26.811Z,22.36
2022-12-11T21:45:07.198Z,23.66
2022-12-11T21:46:43.500Z,27.60
2022-12-11T21:49:10.611Z,26.83
2022-12-11T21:51:44.048Z,24.83
2022-12-11T21:54:18.103Z,24.90
2022-12-11T21:56:45.964Z,24.11
2022-12-11T21:59:13.524Z,24.47
2022-12-11T22:01:43.758Z,23.65
2022-12-11T22:04:11.497Z,24.92
2022-12-11T22:06:41.852Z,25.44
2022-12-11T22:09:10.616Z,24.15
2022-12-11T22:11:37.853Z,25.58
2022-12-11T22:14:06.665Z,29.09
2022-12-11T22:16:34.761Z,33.59
2022-12-11T22:19:01.811Z,26.33
2022-12-11T22:21:29.031Z,25.21
2022-12-11T22:23:56.319Z,25.28
2022-12-11T22:26:26.344Z,33.67
2022-12-11T22:28:54.391Z,32.66
2022-12-11T22:31:26.227Z,31.98
2022-12-11T22:33:54.786Z,29.37
2022-12-11T22:36:23.670Z,34.64
2022-12-11T22:38:51.333Z,37.62
2022-12-11T22:41:28.695Z,26.92
2022-12-11T22:43:56.630Z,25.29
2022-12-11T22:46:26.950Z,24.73
2022-12-11T22:48:54.911Z,25.36
2022-12-11T22:51:22.864Z,25.51
2022-12-11T22:53:50.202Z,25.29
2022-12-11T22:56:17.197Z,26.03
2022-12-11T22:58:44.256Z,26.08
2022-12-11T23:01:14.432Z,26.34
2022-12-11T23:03:41.502Z,27.02
2022-12-11T23:06:11.379Z,26.59
2022-12-11T23:08:39.985Z,26.02
2022-12-11T23:11:21.160Z,26.93
2022-12-11T23:13:48.281Z,24.76
2022-12-11T23:16:15.390Z,23.29
2022-12-11T23:18:43.177Z,22.90
2022-12-11T23:21:11.671Z,21.89
2022-12-11T23:23:39.305Z,22.21
2022-12-11T23:26:09.142Z,21.49
2022-12-11T23:28:36.205Z,21.91
2022-12-11T23:31:03.639Z,22.59
2022-12-11T23:33:30.697Z,21.31
2022-12-11T23:35:58.622Z,21.33
2022-12-11T23:38:26.232Z,21.74
2022-12-11T23:40:53.565Z,22.57
2022-12-11T23:43:21.864Z,23.03
2022-12-11T23:45:49.183Z,22.32
2022-12-11T23:48:16.508Z,23.01
2022-12-11T23:50:44.855Z,21.92
2022-12-11T23:53:12.225Z,23.33
2022-12-11T23:55:44.370Z,25.25
2022-12-11T23:58:11.763Z,24.46
